createdAt,value
2023-01-19T00:01:01.295Z,99505.81
2023-01-19T00:03:32.970Z,99442.22
2023-01-19T00:06:32.816Z,99506.78
2023-01-19T00:09:11.395Z,99461.44
2023-01-19T00:11:58.812Z,99501.53
2023-01-19T00:14:32.909Z,99530.59
2023-01-19T00:17:00.161Z,99437.91
2023-01-19T00:19:35.088Z,99389.06
2023-01-19T00:22:10.838Z,99437.66
2023-01-19T00:24:48.886Z,99523.69
2023-01-19T00:27:25.005Z,99513.25
2023-01-19T00:30:06.358Z,99397.69
2023-01-19T00:32:35.739Z,99505.41
2023-01-19T00:35:05.992Z,99471.09
2023-01-19T00:37:46.899Z,99535.72
2023-01-19T00:40:26.686Z,99545.97
2023-01-19T00:43:05.624Z,99555.13
2023-01-19T00:45:46.763Z,99553.47
2023-01-19T00:51:09.505Z,99530.47
2023-01-19T00:53:56.858Z,99569.34
2023-01-19T00:56:45.737Z,99590.16
2023-01-19T00:59:15.445Z,99583.09
2023-01-19T01:01:49.776Z,99606.69
2023-01-19T01:04:35.047Z,99574.84
2023-01-19T01:07:10.865Z,99555.56
2023-01-19T01:09:37.605Z,99612.13
2023-01-19T01:12:04.559Z,99600.69
2023-01-19T01:14:40.345Z,99600.16
2023-01-19T01:17:11.671Z,99563.72
2023-01-19T01:19:44.007Z,99582.09
2023-01-19T01:22:10.763Z,99568.19
2023-01-19T01:24:43.705Z,99474.13
2023-01-19T01:30:05.588Z,99561.50
2023-01-19T01:32:49.138Z,99502.69
2023-01-19T01:35:29.013Z,99518.97
2023-01-19T01:38:09.701Z,99562.19
2023-01-19T01:40:43.102Z,99557.22
2023-01-19T01:43:26.284Z,99554.81
2023-01-19T01:46:20.232Z,99556.22
2023-01-19T01:49:30.221Z,99517.63
2023-01-19T01:52:02.608Z,99538.03
2023-01-19T01:54:37.019Z,99506.50
2023-01-19T01:57:12.386Z,99394.88
2023-01-19T02:00:04.130Z,99526.44
2023-01-19T02:03:04.597Z,99526.72
2023-01-19T02:05:36.879Z,99501.59
2023-01-19T02:08:48.563Z,99394.84
2023-01-19T02:11:35.813Z,99478.72
2023-01-19T02:14:13.525Z,99484.22
2023-01-19T02:16:40.915Z,99469.19
2023-01-19T02:19:19.668Z,99454.94
2023-01-19T02:22:18.760Z,99503.13
2023-01-19T02:24:45.709Z,99521.97
2023-01-19T02:27:13.799Z,99556.69
2023-01-19T02:29:52.144Z,99538.31
2023-01-19T02:32:20.821Z,99555.53
2023-01-19T02:34:48.924Z,99577.34
2023-01-19T02:37:19.571Z,99517.34
2023-01-19T02:39:56.951Z,99507.59
2023-01-19T02:43:06.328Z,99550.56
2023-01-19T02:48:35.741Z,99549.50
2023-01-19T02:51:24.631Z,99480.09
2023-01-19T02:54:23.148Z,99530.75
2023-01-19T02:57:30.485Z,99538.53
2023-01-19T03:00:42.279Z,99490.06
2023-01-19T03:03:31.347Z,99558.66
2023-01-19T03:06:51.172Z,99504.09
2023-01-19T03:09:32.463Z,99546.72
2023-01-19T03:12:22.129Z,99537.13
2023-01-19T03:14:50.686Z,99532.00
2023-01-19T03:17:19.097Z,99541.47
2023-01-19T03:19:53.080Z,99561.16
2023-01-19T03:22:29.225Z,99574.34
2023-01-19T03:25:03.038Z,99566.31
2023-01-19T03:27:47.088Z,99555.59
2023-01-19T03:30:24.299Z,99554.91
2023-01-19T03:33:03.471Z,99545.88
2023-01-19T03:35:43.027Z,99552.53
2023-01-19T03:38:15.910Z,99499.38
2023-01-19T03:40:51.744Z,99535.06
2023-01-19T03:43:28.776Z,99526.75
2023-01-19T03:46:00.057Z,99542.81
2023-01-19T03:51:14.522Z,99529.50
2023-01-19T03:54:03.539Z,99517.56
2023-01-19T03:56:59.673Z,99524.09
2023-01-19T03:59:31.984Z,99508.94
2023-01-19T04:02:05.857Z,99381.81
2023-01-19T04:04:35.485Z,99494.78
2023-01-19T04:07:05.099Z,99513.56
2023-01-19T04:09:39.276Z,99554.22
2023-01-19T04:12:20.024Z,99557.00
2023-01-19T04:17:33.958Z,99546.13
2023-01-19T04:20:03.839Z,99524.34
2023-01-19T04:22:36.159Z,99512.69
2023-01-19T04:25:07.368Z,99497.13
2023-01-19T04:27:49.319Z,99490.72
2023-01-19T04:30:19.215Z,99484.78
2023-01-19T04:32:46.026Z,99534.91
2023-01-19T04:35:23.383Z,99471.75
2023-01-19T04:37:59.526Z,99528.06
2023-01-19T04:40:36.923Z,99557.50
2023-01-19T04:43:06.089Z,99560.78
2023-01-19T04:45:33.339Z,99562.28
2023-01-19T04:48:04.395Z,99440.69
2023-01-19T04:50:33.191Z,99544.91
2023-01-19T04:53:00.922Z,99543.66
2023-01-19T04:55:28.240Z,99574.94
2023-01-19T04:57:58.137Z,99514.38
2023-01-19T05:00:24.772Z,99544.44
2023-01-19T05:03:17.893Z,99568.91
2023-01-19T05:05:52.833Z,99500.31
2023-01-19T05:08:39.878Z,99568.53
2023-01-19T05:11:16.838Z,99580.72
2023-01-19T05:13:45.509Z,99564.91
2023-01-19T05:16:23.620Z,99569.78
2023-01-19T05:18:50.435Z,99556.38
2023-01-19T05:21:17.029Z,99517.56
2023-01-19T05:23:46.502Z,99508.44
2023-01-19T05:26:14.984Z,99516.00
2023-01-19T05:28:41.710Z,99546.75
2023-01-19T05:31:08.481Z,99575.81
2023-01-19T05:33:35.104Z,99577.06
2023-01-19T05:36:02.324Z,99565.88
2023-01-19T05:38:40.579Z,99571.44
2023-01-19T05:41:10.892Z,99570.47
2023-01-19T05:43:37.493Z,99546.31
2023-01-19T05:46:05.309Z,99575.59
2023-01-19T05:48:34.966Z,99539.31
2023-01-19T05:51:04.136Z,99557.81
2023-01-19T05:53:31.158Z,99539.34
2023-01-19T05:56:10.647Z,99520.03
2023-01-19T06:01:26.437Z,99550.88
2023-01-19T06:03:53.082Z,99575.03
2023-01-19T06:06:27.064Z,99547.94
2023-01-19T06:08:57.030Z,99420.34
2023-01-19T06:11:24.073Z,99611.09
2023-01-19T06:14:00.123Z,99611.31
2023-01-19T06:16:28.123Z,99614.06
2023-01-19T06:18:58.619Z,99593.72
2023-01-19T06:21:33.056Z,99610.38
2023-01-19T06:24:06.344Z,99618.09
2023-01-19T06:26:32.916Z,99637.53
2023-01-19T06:29:01.003Z,99620.31
2023-01-19T06:34:13.557Z,99668.16
2023-01-19T06:36:51.277Z,99625.03
2023-01-19T06:39:26.565Z,99665.25
2023-01-19T06:41:56.029Z,99636.44
2023-01-19T06:44:25.736Z,99632.31
2023-01-19T06:49:42.104Z,99682.63
2023-01-19T06:52:20.084Z,99678.03
2023-01-19T06:54:46.984Z,99659.91
2023-01-19T06:57:14.886Z,99687.84
2023-01-19T06:59:42.191Z,99644.22
2023-01-19T07:02:26.441Z,99697.69
2023-01-19T07:05:01.868Z,99701.75
2023-01-19T07:07:32.804Z,99684.06
2023-01-19T07:09:59.674Z,99710.94
2023-01-19T07:12:34.353Z,99716.63
2023-01-19T07:15:22.696Z,99701.25
2023-01-19T07:18:05.729Z,99728.28
2023-01-19T07:20:34.345Z,99721.84
2023-01-19T07:23:01.554Z,99676.69
2023-01-19T07:25:29.310Z,99686.94
2023-01-19T07:28:02.897Z,99736.63
2023-01-19T07:30:38.262Z,99712.09
2023-01-19T07:33:05.147Z,99678.44
2023-01-19T07:35:43.601Z,99693.75
2023-01-19T07:38:22.019Z,99758.88
2023-01-19T07:40:59.653Z,99516.91
2023-01-19T07:43:27.327Z,99757.78
2023-01-19T07:46:04.652Z,99765.16
2023-01-19T07:48:31.514Z,99738.13
2023-01-19T07:51:05.732Z,99586.38
2023-01-19T07:53:34.158Z,99672.13
2023-01-19T07:56:09.008Z,99765.63
2023-01-19T07:58:40.156Z,99760.69
2023-01-19T08:01:12.191Z,99697.38
2023-01-19T08:03:39.102Z,99798.50
2023-01-19T08:06:09.464Z,99802.72
2023-01-19T08:08:40.764Z,99810.63
2023-01-19T08:11:18.046Z,99805.53
2023-01-19T08:13:58.150Z,99792.38
2023-01-19T08:16:24.947Z,99735.88
2023-01-19T08:18:52.688Z,99804.19
2023-01-19T08:21:30.312Z,99824.53
2023-01-19T08:24:03.349Z,99810.56
2023-01-19T08:26:32.937Z,99811.88
2023-01-19T08:29:05.769Z,99809.72
2023-01-19T08:31:32.790Z,99817.03
2023-01-19T08:33:59.519Z,99789.03
2023-01-19T08:36:32.603Z,99804.72
2023-01-19T08:39:01.741Z,99816.66
2023-01-19T08:41:28.476Z,99815.72
2023-01-19T08:43:58.430Z,99785.38
2023-01-19T08:46:25.479Z,99815.72
2023-01-19T08:48:52.564Z,99830.28
2023-01-19T08:51:31.402Z,99793.47
2023-01-19T08:54:01.169Z,99847.97
2023-01-19T08:59:26.080Z,99797.16
2023-01-19T09:01:52.718Z,99764.72
2023-01-19T09:04:21.103Z,99849.22
2023-01-19T09:06:48.969Z,99845.63
2023-01-19T09:09:15.715Z,99842.03
2023-01-19T09:11:48.254Z,99849.50
2023-01-19T09:14:14.962Z,99850.00
2023-01-19T09:16:50.228Z,99857.41
2023-01-19T09:19:18.909Z,99772.00
2023-01-19T09:21:45.547Z,99839.34
2023-01-19T09:24:13.669Z,99806.25
2023-01-19T09:26:43.160Z,99838.94
2023-01-19T09:29:09.841Z,99863.56
2023-01-19T09:31:37.470Z,99846.88
2023-01-19T09:34:04.104Z,99789.69
2023-01-19T09:36:31.087Z,99857.06
2023-01-19T09:39:01.581Z,99860.28
2023-01-19T09:41:29.371Z,99812.31
2023-01-19T09:44:03.778Z,99882.28
2023-01-19T09:47:02.379Z,99873.81
2023-01-19T09:49:54.532Z,99878.63
2023-01-19T09:52:24.905Z,99885.13
2023-01-19T09:55:06.491Z,99883.06
2023-01-19T09:57:38.997Z,99889.38
2023-01-19T10:00:25.684Z,99892.28
2023-01-19T10:03:09.559Z,99728.44
2023-01-19T10:05:50.787Z,99892.56
2023-01-19T10:08:36.732Z,99892.84
2023-01-19T10:11:10.224Z,99905.66
2023-01-19T10:13:50.135Z,99890.59
2023-01-19T10:16:42.232Z,99904.28
2023-01-19T10:19:49.377Z,99837.47
2023-01-19T10:22:28.732Z,99893.66
2023-01-19T10:25:09.263Z,99880.38
2023-01-19T10:27:38.205Z,99846.56
2023-01-19T10:30:16.818Z,99916.06
2023-01-19T10:32:50.113Z,99912.25
2023-01-19T10:35:36.811Z,99677.72
2023-01-19T10:38:08.860Z,99864.19
2023-01-19T10:40:50.251Z,99897.44
2023-01-19T10:43:35.301Z,99916.53
2023-01-19T10:46:31.322Z,99917.97
2023-01-19T10:48:58.585Z,99909.97
2023-01-19T10:51:38.128Z,99910.28
2023-01-19T10:54:28.845Z,99909.81
2023-01-19T10:57:05.458Z,99887.63
2023-01-19T11:00:09.494Z,99906.25
2023-01-19T11:02:40.395Z,99902.28
2023-01-19T11:05:28.336Z,99874.81
2023-01-19T11:08:04.183Z,99870.38
2023-01-19T11:10:35.000Z,99890.47
2023-01-19T11:13:13.362Z,99895.00
2023-01-19T11:15:58.074Z,99892.22
2023-01-19T11:18:38.439Z,99894.72
2023-01-19T11:21:30.671Z,99895.34
2023-01-19T11:24:22.797Z,99883.50
2023-01-19T11:27:03.008Z,99899.50
2023-01-19T11:30:18.339Z,99861.22
2023-01-19T11:32:46.271Z,99886.09
2023-01-19T11:35:52.551Z,99891.84
2023-01-19T11:38:31.992Z,99883.94
2023-01-19T11:41:04.203Z,99890.66
2023-01-19T11:43:48.192Z,99918.75
2023-01-19T11:46:19.702Z,99904.06
2023-01-19T11:49:02.350Z,99901.81
2023-01-19T11:51:49.459Z,99897.16
2023-01-19T11:54:30.535Z,99927.53
2023-01-19T11:57:21.821Z,99923.09
2023-01-19T11:59:51.210Z,99942.59
2023-01-19T12:02:29.447Z,99880.03
2023-01-19T12:05:13.521Z,99958.41
2023-01-19T12:07:48.457Z,99964.53
2023-01-19T12:10:28.320Z,99895.56
2023-01-19T12:13:02.663Z,99946.22
2023-01-19T12:15:46.911Z,99970.44
2023-01-19T12:18:34.959Z,99985.84
2023-01-19T12:21:06.449Z,99973.91
2023-01-19T12:23:52.309Z,99969.91
2023-01-19T12:26:24.832Z,99969.09
2023-01-19T12:29:08.894Z,99968.47
2023-01-19T12:31:51.861Z,99958.00
2023-01-19T12:34:41.314Z,99959.66
2023-01-19T12:37:32.226Z,99890.25
2023-01-19T12:40:28.058Z,99957.47
2023-01-19T12:43:05.687Z,99922.16
2023-01-19T12:45:41.849Z,99919.63
2023-01-19T12:48:33.018Z,99964.56
2023-01-19T12:50:59.823Z,99970.44
2023-01-19T12:53:36.971Z,99923.97
2023-01-19T12:56:16.028Z,99900.50
2023-01-19T12:58:52.456Z,99927.53
2023-01-19T13:01:21.638Z,99936.38
2023-01-19T13:04:29.391Z,99946.91
2023-01-19T13:07:08.526Z,99884.56
2023-01-19T13:09:39.357Z,99951.00
2023-01-19T13:12:21.817Z,99930.19
2023-01-19T13:15:38.046Z,99947.94
2023-01-19T13:18:05.013Z,99959.66
2023-01-19T13:20:47.023Z,99971.00
2023-01-19T13:23:29.061Z,99962.78
2023-01-19T13:26:05.807Z,99986.47
2023-01-19T13:28:43.687Z,99919.44
2023-01-19T13:31:15.884Z,99961.56
2023-01-19T13:33:57.006Z,99964.66
2023-01-19T13:36:41.093Z,99975.34
2023-01-19T13:39:24.839Z,99962.78
2023-01-19T13:42:05.065Z,99978.44
2023-01-19T13:44:55.746Z,99913.25
2023-01-19T13:47:36.992Z,99956.66
2023-01-19T13:50:09.829Z,99956.06
2023-01-19T13:52:43.968Z,99934.88
2023-01-19T13:55:20.749Z,100000.59
2023-01-19T13:57:54.784Z,99726.06
2023-01-19T14:00:33.842Z,99940.75
2023-01-19T14:03:03.118Z,99997.00
2023-01-19T14:05:35.670Z,99732.06
2023-01-19T14:11:36.085Z,99945.19
2023-01-19T14:17:56.964Z,99991.72
2023-01-19T14:20:33.425Z,99956.56
2023-01-19T14:23:21.633Z,99968.16
2023-01-19T14:25:49.085Z,99965.53
2023-01-19T14:28:46.197Z,99760.22
2023-01-19T14:31:30.439Z,99989.84
2023-01-19T14:37:05.637Z,99988.16
2023-01-19T14:39:46.630Z,99989.59
2023-01-19T14:42:42.121Z,99995.34
2023-01-19T14:46:06.671Z,100014.84
2023-01-19T14:48:50.550Z,99986.47
2023-01-19T14:51:29.667Z,99986.94
2023-01-19T14:54:02.959Z,99931.66
2023-01-19T14:56:56.696Z,100005.16
2023-01-19T14:59:23.790Z,99973.31
2023-01-19T15:01:53.441Z,99987.31
2023-01-19T15:04:20.071Z,99995.69
2023-01-19T15:06:47.368Z,100010.91
2023-01-19T15:09:15.502Z,100010.16
2023-01-19T15:11:59.315Z,100008.72
2023-01-19T15:14:29.665Z,99985.09
2023-01-19T15:17:07.303Z,99997.09
2023-01-19T15:19:55.416Z,99993.00
2023-01-19T15:22:38.683Z,99993.16
2023-01-19T15:25:06.333Z,100020.81
2023-01-19T15:27:33.029Z,99998.41
2023-01-19T15:30:02.637Z,100025.72
2023-01-19T15:32:48.776Z,100024.38
2023-01-19T15:35:32.146Z,99939.13
2023-01-19T15:38:09.908Z,100032.28
2023-01-19T15:40:37.020Z,100023.16
2023-01-19T15:43:16.448Z,100037.69
2023-01-19T15:46:02.414Z,99999.94
2023-01-19T15:48:30.546Z,100005.09
2023-01-19T15:51:03.957Z,100041.53
2023-01-19T15:53:32.187Z,100025.56
2023-01-19T15:56:02.846Z,100009.38
2023-01-19T15:58:30.003Z,99986.63
2023-01-19T16:00:58.825Z,100047.19
2023-01-19T16:03:26.153Z,100009.41
2023-01-19T16:05:56.171Z,100067.25
2023-01-19T16:08:26.278Z,100064.00
2023-01-19T16:10:53.231Z,100070.31
2023-01-19T16:13:29.595Z,100018.78
2023-01-19T16:15:56.160Z,100008.47
2023-01-19T16:18:24.138Z,100087.50
2023-01-19T16:20:50.844Z,100100.53
2023-01-19T16:23:17.541Z,100108.28
2023-01-19T16:25:54.898Z,100064.00
2023-01-19T16:28:21.509Z,100100.22
2023-01-19T16:31:02.047Z,100058.91
2023-01-19T16:33:29.012Z,100030.88
2023-01-19T16:35:56.165Z,100100.41
2023-01-19T16:38:25.968Z,100120.03
2023-01-19T16:40:59.089Z,100075.16
2023-01-19T16:43:32.063Z,100122.59
2023-01-19T16:46:02.863Z,100102.03
2023-01-19T16:48:32.321Z,100134.41
2023-01-19T16:51:16.519Z,100122.69
2023-01-19T16:53:54.770Z,100137.50
2023-01-19T16:56:27.921Z,100042.31
2023-01-19T16:59:01.146Z,100139.31
2023-01-19T17:01:35.513Z,100146.16
2023-01-19T17:04:12.290Z,100086.19
2023-01-19T17:09:30.996Z,100129.47
2023-01-19T17:12:27.934Z,100152.19
2023-01-19T17:15:01.446Z,100147.53
2023-01-19T17:17:31.428Z,100092.72
2023-01-19T17:20:07.488Z,100151.66
2023-01-19T17:23:05.244Z,100149.63
2023-01-19T17:25:34.901Z,100166.31
2023-01-19T17:28:01.564Z,100171.66
2023-01-19T17:30:37.387Z,100051.09
2023-01-19T17:33:04.066Z,100172.03
2023-01-19T17:35:32.537Z,100177.59
2023-01-19T17:38:07.983Z,100143.69
2023-01-19T17:40:35.949Z,100166.81
2023-01-19T17:43:04.335Z,100155.28
2023-01-19T17:48:14.148Z,100114.00
2023-01-19T17:50:40.883Z,100105.78
2023-01-19T17:53:08.421Z,100161.09
2023-01-19T17:55:38.150Z,100172.13
2023-01-19T17:58:07.274Z,100165.06
2023-01-19T18:00:36.458Z,100177.25
2023-01-19T18:03:03.164Z,100079.13
2023-01-19T18:05:30.096Z,100137.72
2023-01-19T18:08:03.035Z,100146.94
2023-01-19T18:10:29.828Z,100045.50
2023-01-19T18:12:56.615Z,100161.25
2023-01-19T18:15:23.268Z,100178.09
2023-01-19T18:18:06.182Z,100158.94
2023-01-19T18:20:32.862Z,100163.78
2023-01-19T18:22:59.553Z,100163.34
2023-01-19T18:25:28.424Z,100139.53
2023-01-19T18:28:05.442Z,100060.84
2023-01-19T18:30:34.956Z,100114.69
2023-01-19T18:33:01.612Z,100187.00
2023-01-19T18:35:28.920Z,100190.81
2023-01-19T18:37:59.203Z,100145.09
2023-01-19T18:40:25.916Z,100164.63
2023-01-19T18:43:01.325Z,100191.97
2023-01-19T18:45:40.630Z,100095.03
2023-01-19T18:48:12.721Z,100174.00
2023-01-19T18:50:45.459Z,100099.59
2023-01-19T18:53:18.091Z,100147.34
2023-01-19T18:55:59.737Z,100184.59
2023-01-19T18:58:29.713Z,100128.94
2023-01-19T19:00:57.412Z,100129.88
2023-01-19T19:03:27.482Z,100137.94
2023-01-19T19:05:57.363Z,100096.06
2023-01-19T19:08:24.060Z,100152.88
2023-01-19T19:10:50.831Z,100148.47
2023-01-19T19:13:17.955Z,100110.50
2023-01-19T19:15:44.660Z,100078.63
2023-01-19T19:18:14.690Z,100061.81
2023-01-19T19:20:44.492Z,100169.88
2023-01-19T19:23:12.109Z,100148.19
2023-01-19T19:25:38.974Z,100110.22
2023-01-19T19:28:09.540Z,100026.47
2023-01-19T19:30:39.512Z,100147.91
2023-01-19T19:33:06.164Z,100176.94
2023-01-19T19:35:32.732Z,100150.88
2023-01-19T19:38:02.321Z,100166.69
2023-01-19T19:40:29.276Z,100184.25
2023-01-19T19:43:01.728Z,99996.13
2023-01-19T19:45:37.527Z,100164.44
2023-01-19T19:48:04.426Z,100176.94
2023-01-19T19:50:34.642Z,100123.72
2023-01-19T19:53:19.937Z,100148.53
2023-01-19T19:56:03.636Z,100171.88
2023-01-19T19:58:31.453Z,100122.84
2023-01-19T20:00:58.158Z,100150.91
2023-01-19T20:06:13.432Z,100172.97
2023-01-19T20:08:40.772Z,99964.38
2023-01-19T20:11:12.550Z,100102.41
2023-01-19T20:13:44.042Z,100181.56
2023-01-19T20:16:14.114Z,100150.25
2023-01-19T20:18:42.995Z,100185.41
2023-01-19T20:21:15.763Z,100184.84
2023-01-19T20:23:43.657Z,100148.06
2023-01-19T20:26:14.313Z,100172.66
2023-01-19T20:28:41.475Z,100140.69
2023-01-19T20:31:29.228Z,100092.66
2023-01-19T20:33:57.805Z,100147.22
2023-01-19T20:36:30.839Z,100186.69
2023-01-19T20:38:59.142Z,100137.25
2023-01-19T20:41:27.829Z,100196.53
2023-01-19T20:43:55.182Z,100122.94
2023-01-19T20:46:22.080Z,100206.91
2023-01-19T20:48:53.811Z,100184.72
2023-01-19T20:51:20.890Z,100213.72
2023-01-19T20:53:50.337Z,100214.75
2023-01-19T20:56:17.102Z,100218.31
2023-01-19T20:58:43.911Z,100206.63
2023-01-19T21:01:26.797Z,100208.22
2023-01-19T21:03:54.111Z,100202.72
2023-01-19T21:06:31.957Z,100188.69
2023-01-19T21:09:11.623Z,100215.91
2023-01-19T21:11:38.907Z,100188.06
2023-01-19T21:14:06.859Z,100192.53
2023-01-19T21:16:40.490Z,100214.41
2023-01-19T21:19:07.210Z,100199.84
2023-01-19T21:21:34.087Z,100204.81
2023-01-19T21:24:04.482Z,100218.56
2023-01-19T21:26:33.310Z,100210.53
2023-01-19T21:29:02.347Z,100230.75
2023-01-19T21:31:29.887Z,100243.72
2023-01-19T21:34:02.731Z,100232.78
2023-01-19T21:36:29.803Z,100173.69
2023-01-19T21:39:00.729Z,100234.75
2023-01-19T21:41:30.243Z,100206.78
2023-01-19T21:43:58.572Z,100219.13
2023-01-19T21:46:33.362Z,100242.16
2023-01-19T21:49:05.067Z,100142.34
2023-01-19T21:51:37.434Z,100218.41
2023-01-19T21:54:05.751Z,100247.03
2023-01-19T21:56:36.428Z,100249.94
2023-01-19T21:59:10.731Z,100234.13
2023-01-19T22:01:37.665Z,100250.41
2023-01-19T22:04:04.468Z,100254.34
2023-01-19T22:06:34.472Z,100185.19
2023-01-19T22:09:07.054Z,100251.25
2023-01-19T22:11:39.621Z,100225.03
2023-01-19T22:14:09.218Z,100211.09
2023-01-19T22:16:39.336Z,100247.66
2023-01-19T22:19:08.207Z,100117.75
2023-01-19T22:21:38.292Z,100121.13
2023-01-19T22:24:15.001Z,100179.88
2023-01-19T22:26:41.872Z,100261.94
2023-01-19T22:29:12.113Z,100268.56
2023-01-19T22:31:39.970Z,100224.00
2023-01-19T22:34:19.960Z,100269.78
2023-01-19T22:39:36.178Z,100253.59
2023-01-19T22:42:18.410Z,100263.41
2023-01-19T22:44:46.023Z,100280.81
2023-01-19T22:47:12.893Z,100278.19
2023-01-19T22:49:40.785Z,100235.78
2023-01-19T22:52:07.367Z,100233.38
2023-01-19T22:54:40.511Z,100256.41
2023-01-19T22:57:13.228Z,100248.97
2023-01-19T22:59:41.069Z,100277.38
2023-01-19T23:02:13.050Z,100259.09
2023-01-19T23:04:39.815Z,100195.03
2023-01-19T23:07:09.880Z,100113.59
2023-01-19T23:09:38.072Z,100231.19
2023-01-19T23:12:05.149Z,100267.25
2023-01-19T23:14:31.962Z,100267.81
2023-01-19T23:17:01.243Z,100228.50
2023-01-19T23:19:48.529Z,100236.16
2023-01-19T23:22:17.147Z,100278.38
2023-01-19T23:24:43.700Z,100265.38
2023-01-19T23:27:11.925Z,100194.06
2023-01-19T23:29:44.585Z,100242.91
2023-01-19T23:32:15.292Z,100245.16
2023-01-19T23:34:49.087Z,100272.00
2023-01-19T23:37:24.473Z,100272.53
2023-01-19T23:39:58.183Z,100242.34
2023-01-19T23:42:27.811Z,100254.28
2023-01-19T23:44:57.739Z,100188.44
2023-01-19T23:47:49.236Z,100289.41
2023-01-19T23:50:18.996Z,100248.16
2023-01-19T23:52:45.581Z,100259.94
2023-01-19T23:55:13.660Z,100247.56
2023-01-19T23:57:40.425Z,100252.81
